»·PEaware :: N433YE KVNY-KSNA

N433YE :: KVNY-KSNA

FLIGHT INFORMATION

Flight Status: Arrived
Operator: Privately registered:
United States
More flights under this callsign
Pilot: Jeremy H. (10741)
Aircraft: Diamond DA-62
(DA62)
More flights by this aircraft type
Origin: KVNY Van Nuys
United States
Destination: KSNA John Wayne-Orange Co
United States
More flights between these airports :: More routes between these airports
Route: +
File this flight plan on PilotEdge
Remarks:
Altitude:
(Current/Filed)
2,500ft
Speed:
(Current/Filed)
0kts
Departed: 01-Aug-18 12:30 PM
Arrived: 01-Aug-18 01:31 PM
Distance/Time
Traveled:
44nm/1:01
Distance/Time
To Go:
Arrived

Flight Plot

Page will automatically refresh every two minutes.


Map Options




Map Legend


Flown Route
Filed Route
Departure Airport
Arrival Airport
Navaid (VOR, NDB)
Fix

Horizontal Profiles

Position Reports

Time Latitude Longitude Heading Altitude Ground
Speed
01-Aug-18 12:12 33.943059 -118.379868 44 96ft 0kts
01-Aug-18 12:13 33.943059 -118.379868 44 96ft 0kts
01-Aug-18 12:14 33.943059 -118.379868 44 96ft 0kts
01-Aug-18 12:15 33.943059 -118.379868 44 96ft 0kts
01-Aug-18 12:16 33.943059 -118.379868 44 96ft 0kts
01-Aug-18 12:17 33.943059 -118.379868 44 96ft 0kts
01-Aug-18 12:18 33.943059 -118.379868 44 96ft 0kts
01-Aug-18 12:19 33.943059 -118.379868 44 96ft 0kts
01-Aug-18 12:20 33.943059 -118.379868 44 96ft 0kts
01-Aug-18 12:21 33.943059 -118.379868 44 96ft 0kts
01-Aug-18 12:22 33.943059 -118.379868 44 96ft 0kts
01-Aug-18 12:23 33.943059 -118.379868 44 96ft 0kts
01-Aug-18 12:24 33.943059 -118.379868 44 96ft 0kts
01-Aug-18 12:25 33.943059 -118.379868 44 96ft 0kts
01-Aug-18 12:26 33.943059 -118.379868 44 96ft 0kts
01-Aug-18 12:27 33.943135 -118.379863 323 96ft 5kts
01-Aug-18 12:28 33.940832 -118.380433 178 96ft 9kts
01-Aug-18 12:29 33.940774 -118.380429 176 96ft 0kts
01-Aug-18 12:30 33.940640 -118.380399 162 96ft 9kts
01-Aug-18 12:31 33.938783 -118.390206 263 243ft 85kts
01-Aug-18 12:32 33.936477 -118.421787 266 1651ft 89kts
01-Aug-18 12:33 33.934882 -118.450341 266 2990ft 100kts
01-Aug-18 12:34 33.932733 -118.497805 266 3011ft 164kts
01-Aug-18 12:35 33.900584 -118.521269 172 3008ft 174kts
01-Aug-18 12:36 33.852456 -118.511260 172 3003ft 176kts
01-Aug-18 12:37 33.804213 -118.500843 172 3001ft 177kts
01-Aug-18 12:38 33.755684 -118.490005 172 2999ft 178kts
01-Aug-18 12:39 33.712866 -118.461542 142 3011ft 181kts
01-Aug-18 12:40 33.674277 -118.422650 142 3015ft 181kts
01-Aug-18 12:41 33.636756 -118.384743 141 3492ft 160kts
01-Aug-18 12:42 33.605310 -118.352502 142 4661ft 141kts
01-Aug-18 12:43 33.579171 -118.318926 133 5848ft 136kts
01-Aug-18 12:44 33.554411 -118.285241 133 7043ft 134kts
01-Aug-18 12:45 33.527485 -118.248775 133 7537ft 167kts
01-Aug-18 12:46 33.494961 -118.204736 132 7557ft 181kts
01-Aug-18 12:47 33.461269 -118.159177 132 7551ft 183kts
01-Aug-18 12:48 33.427403 -118.113467 132 7544ft 183kts
01-Aug-18 12:49 33.393525 -118.067787 132 7548ft 183kts
01-Aug-18 12:50 33.359640 -118.022149 132 7557ft 183kts
01-Aug-18 12:51 33.325716 -117.976532 132 7560ft 184kts
01-Aug-18 12:52 33.291686 -117.930837 132 7557ft 184kts
01-Aug-18 12:53 33.257595 -117.885112 132 7545ft 185kts
01-Aug-18 12:54 33.223304 -117.839173 132 7529ft 185kts
01-Aug-18 12:55 33.189199 -117.793541 132 7506ft 185kts
01-Aug-18 12:56 33.154899 -117.747710 132 7178ft 182kts
01-Aug-18 12:57 33.121728 -117.703431 133 6371ft 177kts
01-Aug-18 12:58 33.089005 -117.659810 133 5571ft 176kts
01-Aug-18 12:59 33.058033 -117.618599 133 5513ft 172kts
01-Aug-18 13:00 33.024909 -117.574673 133 5509ft 181kts
01-Aug-18 13:01 32.991258 -117.529978 133 5508ft 181kts
01-Aug-18 13:02 32.957916 -117.485745 133 4896ft 175kts
01-Aug-18 13:03 32.925634 -117.442977 133 4093ft 173kts
01-Aug-18 13:04 32.893779 -117.400816 133 3505ft 162kts
01-Aug-18 13:05 32.865335 -117.363217 133 3500ft 145kts
01-Aug-18 13:06 32.840402 -117.328660 137 3502ft 136kts
01-Aug-18 13:07 32.812006 -117.292812 132 2736ft 156kts
01-Aug-18 13:08 32.795770 -117.245450 106 1939ft 156kts
01-Aug-18 13:09 32.783889 -117.200263 106 1386ft 132kts
01-Aug-18 13:10 32.772971 -117.158452 106 1050ft 113kts
01-Aug-18 13:11 32.764968 -117.128226 106 1024ft 95kts
01-Aug-18 13:12 32.748336 -117.107601 193 1015ft 103kts
01-Aug-18 13:13 32.732573 -117.123184 273 706ft 93kts
01-Aug-18 13:14 32.727782 -117.151484 259 758ft 82kts
01-Aug-18 13:15 32.730294 -117.176400 284 170ft 78kts
01-Aug-18 13:16 32.733320 -117.191637 214 17ft 0kts
01-Aug-18 13:17 32.732780 -117.194502 210 17ft 15kts
01-Aug-18 13:18 32.731207 -117.195739 288 17ft 0kts
01-Aug-18 13:19 32.731207 -117.195739 288 17ft 0kts
01-Aug-18 13:32 33.676032 -117.871359 219 60ft 0kts
01-Aug-18 13:33 33.676032 -117.871359 219 60ft 0kts

Navigation Log

Ident Type
Flight plan parsing failed, navigation log unavailable